Date,TemperatureHighF,TemperatureAvgF,TemperatureLowF,DewpointHighF,DewpointAvgF,DewpointLowF,HumidityHigh,HumidityAvg,HumidityLow,PressureMaxIn,PressureMinIn,WindSpeedMaxMPH,WindSpeedAvgMPH,GustSpeedMaxMPH,PrecipitationSumIn
2014-1-1,72,60,46,53,45,39,89,62,42,30.08,29.98,5,1,9,0.00
2014-1-2,78,66,51,48,38,31,76,38,23,30.04,29.95,5,2,9,0.00
2014-1-3,73,59,51,48,39,31,74,49,32,29.98,29.87,4,1,6,0.00
2014-1-4,67,56,49,53,44,-100,89,68,50,29.98,29.89,5,1,10,0.00
2014-1-5,78,61,48,47,36,11,88,50,13,30.09,29.97,6,2,13,0.00
2014-1-6,77,66,56,30,19,6,25,17,9,30.14,30.04,9,2,14,0.00
2014-1-7,71,61,52,53,36,16,85,45,17,30.09,30.00,4,1,9,0.00
2014-1-8,66,57,47,53,48,38,91,74,60,30.09,29.97,6,1,11,0.00
2014-1-9,60,52,49,52,49,46,92,87,74,30.05,29.96,4,1,7,0.00
2014-1-10,71,56,48,56,49,45,96,79,52,30.09,29.99,6,1,9,0.00
2014-1-11,74,60,51,52,46,-100,91,64,37,30.11,30.00,5,1,10,0.00
2014-1-12,70,56,45,56,50,41,96,83,57,30.11,29.99,5,1,12,0.01
2014-1-13,81,69,58,30,22,16,28,17,11,30.25,30.11,8,2,14,0.01
2014-1-14,87,73,59,30,15,10,25,12,7,30.24,30.12,12,4,22,0.00
2014-1-15,86,74,63,30,20,13,16,13,9,30.16,30.04,7,2,15,0.00
2014-1-16,86,77,62,31,16,7,17,10,8,30.07,29.97,6,3,14,0.00
2014-1-17,87,73,61,23,14,7,17,11,6,30.06,29.96,5,2,12,0.00
2014-1-18,84,69,57,37,25,-100,29,21,11,30.04,29.94,5,1,11,0.00
2014-1-19,80,66,55,36,26,17,36,23,11,30.07,29.99,4,1,8,0.00
2014-1-20,82,68,55,49,36,20,65,34,17,30.11,30.01,5,1,9,0.00
2014-1-21,77,66,55,40,32,18,48,29,16,30.10,30.00,7,2,12,0.00
2014-1-22,75,61,51,53,41,25,93,53,29,30.01,29.85,5,1,9,0.00
2014-1-23,69,56,43,52,49,40,93,79,54,30.05,29.85,5,1,9,0.00
2014-1-24,68,60,53,51,46,38,90,62,34,30.17,30.04,5,1,10,0.00
2014-1-25,73,63,55,52,42,-100,67,50,34,30.16,30.06,5,1,11,0.00
2014-1-26,69,60,52,50,44,39,70,56,45,30.10,29.97,5,1,9,0.00
2014-1-27,71,60,53,56,52,46,90,75,58,30.06,29.96,6,2,11,0.00
2014-1-28,70,57,50,57,52,47,95,85,61,30.09,29.98,5,1,8,0.01
2014-1-29,72,58,48,58,52,46,96,85,59,30.05,29.90,4,1,9,0.01
2014-1-30,58,56,52,56,53,50,95,92,84,29.93,29.84,7,3,14,0.04
2014-1-31,62,56,49,53,49,44,94,79,57,29.95,29.85,8,3,15,0.04
2014-2-1,64,53,44,45,38,-100,88,63,33,30.02,29.91,10,3,17,0.00
2014-2-2,61,52,44,50,36,19,80,58,31,30.06,29.91,9,2,17,0.00
2014-2-3,62,53,44,47,44,41,90,75,51,29.96,29.85,8,2,15,0.08
2014-2-4,61,52,46,49,45,41,87,76,59,30.05,29.95,10,2,17,0.00
2014-2-5,63,53,46,48,43,-100,84,73,54,30.09,29.96,7,2,14,0.02
2014-2-6,59,53,50,52,48,44,95,83,72,30.03,29.95,9,2,17,0.09
2014-2-7,63,55,52,57,51,49,97,88,63,30.18,29.98,6,2,11,0.12
2014-2-8,67,56,47,53,50,45,93,80,57,30.23,30.14,8,2,16,0.01
2014-2-9,65,57,53,55,52,49,92,82,67,30.19,30.06,7,2,12,0.00
2014-2-10,68,57,51,57,52,48,93,85,66,30.11,29.98,6,1,14,0.00
2014-2-11,73,58,48,58,53,46,96,84,56,30.05,29.97,6,1,12,0.01
2014-2-12,79,66,54,51,46,41,77,52,31,30.09,29.98,5,1,11,0.01
2014-2-13,82,69,56,49,41,34,62,39,22,30.02,29.92,6,2,10,0.00
2014-2-14,82,67,54,52,44,35,60,44,21,30.00,29.91,4,1,8,0.00
2014-2-15,78,66,56,54,43,-100,68,47,27,29.98,29.91,5,1,9,0.00
2014-2-16,75,60,51,54,48,40,80,64,37,30.02,29.92,5,1,9,0.00
2014-2-17,69,59,53,56,49,37,86,71,51,30.03,29.95,6,2,12,0.00
2014-2-18,66,57,51,53,50,46,85,77,61,30.03,29.92,6,2,13,0.00
2014-2-19,66,56,51,54,51,48,92,83,64,29.98,29.85,8,1,12,0.00
2014-2-20,80,62,48,56,47,35,95,65,24,29.99,29.89,5,2,9,0.00
2014-2-21,76,64,55,51,43,30,73,47,27,29.94,29.83,5,1,11,0.00
2014-2-22,72,62,51,45,38,-100,66,44,30,29.88,29.81,5,1,9,0.00
2014-2-23,71,59,49,52,45,31,88,61,36,29.96,29.86,6,1,11,0.00
2014-2-24,70,59,49,55,51,46,93,77,51,29.99,29.88,6,2,11,0.00
2014-2-25,68,58,51,55,51,47,90,77,57,30.01,29.92,7,2,13,0.00
2014-2-26,66,59,55,53,51,49,83,75,58,30.03,29.97,9,2,17,0.00
2014-2-27,67,59,55,60,55,51,97,88,75,29.99,29.83,9,3,15,0.18
2014-2-28,60,58,54,59,56,52,98,95,90,29.83,29.69,16,7,30,0.77
2014-3-1,60,55,51,57,52,-100,96,91,84,29.93,29.73,13,4,25,0.85
2014-3-2,61,55,51,56,52,49,96,91,77,30.11,29.93,8,1,17,0.08
2014-3-3,68,58,51,58,52,49,95,84,66,30.09,29.97,7,3,13,0.01
2014-3-4,66,57,51,56,52,49,95,85,67,30.02,29.93,6,1,10,0.00
2014-3-5,71,60,51,60,55,49,95,84,68,30.04,29.95,4,1,10,0.01
2014-3-6,69,61,55,60,56,54,97,87,67,30.05,29.93,7,2,12,0.01
2014-3-7,69,62,56,59,54,47,95,78,56,29.96,29.86,7,2,12,0.00
2014-3-8,82,67,52,52,38,-100,90,43,16,30.07,29.91,9,3,16,0.00
2014-3-9,85,73,62,37,28,23,28,20,12,30.09,29.99,11,4,19,0.00
2014-3-10,79,67,57,51,38,28,70,38,19,30.03,29.94,6,2,11,0.00
2014-3-11,76,61,52,55,47,35,91,62,33,29.95,29.86,6,1,10,0.00
2014-3-12,73,59,53,57,54,51,95,83,55,29.96,29.90,9,2,15,0.00
2014-3-13,66,59,53,54,51,48,91,78,59,29.98,29.88,8,2,14,0.00
2014-3-14,71,59,49,58,52,46,93,78,58,30.08,29.97,6,2,13,0.00
2014-3-15,79,62,50,59,53,-100,95,75,50,30.16,30.05,5,1,11,0.01
2014-3-16,90,75,60,52,32,-100,71,27,10,30.16,30.03,8,3,16,0.01
2014-3-17,71,65,55,58,49,27,83,59,26,30.04,29.75,8,3,16,0.00
2014-3-18,71,60,53,56,53,49,89,76,57,29.89,29.75,5,2,11,0.00
2014-3-19,73,60,50,58,53,47,95,80,52,30.01,29.89,6,1,12,0.00
2014-3-20,72,60,50,57,51,-100,95,79,55,30.01,29.89,6,2,11,0.01
2014-3-21,68,58,54,52,49,-100,90,74,55,29.97,29.90,7,2,13,0.01
2014-3-22,67,59,55,54,49,-100,83,71,60,30.06,29.95,9,2,14,0.00
2014-3-23,68,58,51,55,52,47,91,80,62,30.09,29.98,9,2,15,0.00
2014-3-24,64,59,56,57,54,53,91,85,76,30.06,29.96,7,2,11,0.00
2014-3-25,62,58,56,57,55,53,95,89,79,29.99,29.86,7,2,10,0.01
2014-3-26,66,58,54,54,52,49,91,79,57,29.95,29.85,13,4,21,0.04
2014-3-27,67,58,51,53,50,46,91,76,54,30.06,29.94,9,3,16,0.02
2014-3-28,68,59,50,55,50,46,87,73,58,30.12,30.03,7,2,13,0.01
2014-3-29,73,61,52,55,49,-100,88,69,47,30.10,29.92,6,2,13,0.00
2014-3-30,69,61,52,54,49,41,89,68,47,30.02,29.94,8,3,17,0.00
2014-3-31,64,56,47,53,46,40,80,70,59,30.00,29.95,9,3,17,0.00
2014-4-13,66,59,56,53,50,47,81,71,57,29.98,29.90,7,2,14,0.00
2014-4-14,85,67,52,58,48,35,90,59,17,30.00,29.91,7,3,14,0.00
2014-4-15,75,61,52,59,54,49,95,80,50,29.98,29.78,7,2,11,0.00
2014-4-16,67,59,54,55,53,51,92,82,63,29.84,29.75,6,3,12,0.00
2014-4-17,65,59,55,56,54,52,92,85,73,29.88,29.80,8,3,15,0.00
2014-4-18,69,62,57,56,54,51,88,77,63,29.90,29.81,11,3,19,0.00
2014-4-19,72,62,53,58,52,-100,92,73,56,30.01,29.88,8,3,16,0.00
2014-4-20,73,63,55,60,56,53,94,81,59,30.02,29.95,6,2,12,0.00
2014-4-21,75,62,56,62,58,55,96,85,61,30.01,29.91,6,2,14,0.00
2014-4-22,69,61,55,57,54,48,90,78,63,29.94,29.85,10,3,16,0.00
2014-4-23,70,59,50,55,50,44,91,73,54,29.93,29.86,7,2,12,0.00
2014-4-24,74,61,52,55,51,44,86,71,50,29.95,29.87,7,2,13,0.00
2014-4-25,66,59,54,55,53,51,91,81,66,29.89,29.77,13,5,25,0.17
2014-4-26,65,57,51,53,46,-100,93,71,49,29.96,29.75,19,6,32,0.34
2014-4-27,69,60,52,53,49,42,88,69,48,29.97,29.91,8,3,15,0.03
2014-4-28,79,64,51,57,51,45,84,63,33,29.97,29.84,7,2,12,0.00
2014-4-29,94,78,55,52,31,19,82,29,7,29.98,29.89,13,4,24,0.00
2014-4-30,92,80,66,26,18,13,18,10,6,29.96,29.85,13,5,25,0.00
2014-5-1,91,80,67,29,21,14,20,12,7,29.98,29.88,8,4,17,0.00
2014-5-2,93,77,63,46,30,22,46,20,8,29.93,29.83,5,2,10,0.00
2014-5-3,88,72,62,59,40,-100,73,35,15,29.88,29.81,6,2,12,0.00
2014-5-4,78,65,57,60,52,41,89,66,42,29.96,29.86,6,2,11,0.00
2014-5-5,67,60,55,56,54,52,92,79,65,29.97,29.88,11,4,19,0.00
2014-5-6,65,59,54,54,50,45,83,72,51,29.88,29.80,12,5,22,0.00
2014-5-13,91,81,74,37,29,16,24,16,10,30.00,29.94,12,4,17,0.00
2014-5-14,98,82,71,31,23,15,18,11,7,30.00,29.88,7,3,17,0.00
2014-5-15,100,86,70,37,23,14,21,11,5,29.94,29.86,10,4,18,0.00
2014-5-16,92,80,67,61,38,23,73,28,10,29.91,29.83,6,2,11,0.00
2014-5-17,74,66,60,62,58,-100,94,77,62,29.86,29.79,8,3,13,0.00
2014-5-18,71,64,59,59,57,55,89,79,63,29.85,29.80,8,3,15,0.00
2014-5-19,67,61,60,57,50,-100,88,73,67,29.91,29.83,11,5,19,0.00
2014-5-20,69,62,57,56,51,-100,86,71,51,29.97,29.89,10,4,18,0.00
2014-5-21,69,62,53,56,53,49,87,73,54,29.95,29.89,9,3,19,0.00
2014-5-22,64,61,60,56,53,-100,84,77,73,29.98,29.88,7,2,12,0.00
2014-5-23,71,64,59,59,56,54,84,75,61,29.98,29.92,9,3,16,0.00
2014-5-24,65,61,59,58,55,-100,91,84,77,29.98,29.90,5,2,11,0.00
2014-5-25,74,66,60,62,59,56,89,80,65,29.95,29.84,8,3,15,0.00
2014-5-26,76,67,62,63,60,58,90,79,63,29.93,29.86,7,2,12,0.00
2014-5-27,75,66,62,63,60,58,91,81,64,29.93,29.86,7,2,13,0.00
2014-5-28,73,65,61,64,60,58,92,84,68,29.90,29.79,6,2,18,0.00
2014-5-29,72,66,61,61,58,56,89,78,64,29.88,29.82,6,3,12,0.00
2014-5-30,76,65,56,63,59,53,94,81,62,29.85,29.79,5,2,12,0.00
2014-5-31,78,66,58,63,57,-100,96,77,56,29.86,29.80,8,2,12,0.00
2014-6-1,77,67,59,63,59,55,91,77,56,29.84,29.76,7,2,13,0.00
2014-6-2,75,66,59,62,59,55,94,78,59,29.84,29.78,7,2,13,0.00
2014-6-3,82,68,58,61,57,52,91,71,38,29.86,29.75,6,2,11,0.00
2014-6-4,77,66,58,61,58,54,93,75,56,29.82,29.74,6,2,11,0.00
2014-6-5,75,66,59,61,58,55,91,78,60,29.82,29.74,6,2,11,0.00
2014-6-6,71,64,59,60,58,56,92,81,68,29.81,29.76,8,3,14,0.00
2014-6-7,73,64,61,60,56,-100,87,77,62,29.80,29.73,7,2,14,0.00
2014-6-8,75,66,60,62,59,56,90,79,64,29.79,29.70,6,2,13,0.00
2014-6-9,75,65,62,65,61,59,94,87,69,29.78,29.72,6,2,13,0.00
2014-6-10,68,63,61,61,59,56,95,87,75,29.86,29.73,8,3,16,0.00
2014-6-11,74,66,61,61,58,56,86,75,60,29.88,29.82,8,3,14,0.00
2014-6-12,74,66,60,61,59,56,88,77,62,29.91,29.86,7,2,14,0.00
2014-6-13,73,65,60,59,57,55,89,76,60,29.91,29.83,7,2,13,0.00
2014-6-14,73,65,58,60,56,-100,87,75,61,29.86,29.77,6,2,14,0.00
2014-6-15,73,65,61,60,58,55,88,77,64,29.84,29.79,7,3,14,0.00
2014-6-16,73,65,60,59,57,54,85,75,60,29.88,29.82,8,3,14,0.00
2014-6-17,71,64,58,59,57,53,89,78,64,29.91,29.83,8,3,16,0.00
2014-6-18,71,62,54,58,54,50,88,76,59,29.91,29.84,9,2,16,0.00
2014-6-19,75,65,55,62,58,52,92,78,61,29.92,29.85,9,2,15,0.00
2014-6-20,76,67,60,64,60,57,95,80,56,29.89,29.83,8,2,15,0.00
2014-6-21,75,65,59,65,59,-100,96,83,65,29.86,29.80,7,2,15,0.00
2014-6-22,74,66,60,62,59,56,90,80,64,29.88,29.83,9,3,16,0.00
2014-6-23,72,65,60,61,59,57,90,81,66,29.91,29.83,8,2,15,0.00
2014-6-24,75,66,61,62,60,58,90,81,62,29.92,29.84,7,2,15,0.00
2014-6-25,75,67,62,62,60,59,91,80,63,29.88,29.80,6,2,15,0.00
2014-6-26,76,67,62,65,61,59,91,82,66,29.87,29.81,6,2,12,0.00
2014-6-27,73,67,62,64,61,59,91,83,72,29.85,29.78,8,4,15,0.00
2014-6-28,73,65,62,65,59,-100,92,84,72,29.83,29.76,8,3,14,0.00
2014-6-29,76,67,63,65,62,60,91,84,69,29.84,29.80,7,2,12,0.00
2014-6-30,73,66,63,65,62,60,92,86,74,29.87,29.79,7,2,13,0.00
2014-7-1,76,67,63,66,62,60,92,85,69,29.85,29.77,7,2,12,0.00
2014-7-2,76,68,63,66,63,60,93,85,67,29.86,29.78,6,2,11,0.00
2014-7-3,80,69,62,67,63,60,94,83,61,29.89,29.79,7,2,12,0.00
2014-7-4,82,71,62,68,64,60,96,79,54,29.96,29.86,6,2,12,0.00
2014-7-5,86,73,65,67,60,-100,94,71,42,29.98,29.93,6,2,12,0.00
2014-7-6,86,74,65,67,61,53,85,66,38,29.96,29.85,7,2,12,0.00
2014-7-7,82,71,64,69,62,58,90,75,54,29.88,29.80,6,2,13,0.00
2014-7-8,79,70,64,66,64,61,94,81,62,29.93,29.83,6,2,12,0.00
2014-7-9,78,70,62,66,63,59,92,80,63,29.92,29.84,7,2,14,0.00
2014-7-10,80,72,66,65,63,61,90,75,60,29.93,29.83,6,2,12,0.00
2014-7-11,78,71,64,64,62,60,91,75,61,29.95,29.89,7,3,13,0.00
2014-7-12,77,68,62,65,61,59,92,79,61,29.96,29.87,7,2,11,0.00
2014-7-13,76,69,63,67,64,61,94,83,71,29.90,29.82,7,3,13,0.00
2014-7-14,76,68,65,68,64,62,92,88,75,29.96,29.85,8,2,16,0.00
2014-7-15,70,67,66,66,63,61,93,88,82,30.00,29.93,5,2,12,0.00
2014-7-16,78,70,65,64,62,60,89,77,60,30.00,29.91,7,2,14,0.00
2014-7-17,76,70,64,62,60,58,87,72,57,30.00,29.92,10,3,15,0.00
2014-7-18,77,68,59,62,60,56,92,75,59,29.98,29.89,10,3,15,0.00
2014-7-19,74,67,62,64,61,58,90,83,70,29.94,29.87,5,1,11,0.00
2014-7-20,78,69,63,64,62,60,90,78,61,29.96,29.89,9,2,15,0.00
2014-7-21,81,70,61,64,62,58,93,76,57,30.02,29.92,8,2,16,0.00
2014-7-22,84,73,61,66,62,57,93,71,46,30.00,29.92,8,3,13,0.00
2014-7-23,85,74,62,66,60,49,82,63,30,29.96,29.82,8,2,14,0.00
2014-7-24,88,74,63,68,62,53,89,68,44,29.85,29.68,5,1,10,0.00
2014-7-25,79,72,67,68,66,64,93,82,65,29.87,29.79,8,2,14,0.00
2014-7-26,81,70,65,68,65,63,96,83,65,29.94,29.85,7,2,12,0.00
2014-7-27,91,72,67,67,66,63,93,80,42,29.97,29.86,7,2,12,0.00
2014-7-28,87,77,68,69,59,39,93,60,24,30.02,29.91,8,2,14,0.00
2014-7-29,89,76,67,65,57,47,85,56,27,29.98,29.89,7,2,12,0.00
2014-7-30,84,73,64,67,64,61,90,75,51,29.92,29.84,6,2,11,0.00
2014-7-31,86,70,65,69,63,63,95,79,51,29.89,29.79,7,2,12,0.00
2014-8-1,79,71,67,68,65,64,92,82,66,29.88,29.81,7,2,12,0.00
2014-8-2,79,71,66,71,67,64,93,86,72,29.92,29.82,6,1,11,0.01
2014-8-3,80,73,70,73,68,66,95,87,69,29.90,29.83,8,2,14,0.04
2014-8-4,83,74,66,72,67,62,96,82,62,29.95,29.87,7,2,15,0.01
2014-8-5,81,70,60,66,62,59,95,77,51,29.98,29.92,6,2,11,0.01
2014-8-6,76,68,62,62,60,58,93,78,60,30.01,29.90,7,2,14,0.01
2014-8-7,77,69,60,63,61,57,92,77,60,29.95,29.84,6,2,14,0.00
2014-8-8,77,70,66,65,63,61,87,80,64,29.90,29.83,6,2,13,0.00
2014-8-9,79,71,66,67,64,62,89,80,65,29.92,29.86,7,2,14,0.00
2014-8-10,80,71,63,68,64,60,94,80,63,29.93,29.85,6,2,12,0.00
2014-8-11,80,71,65,68,65,63,94,82,66,29.91,29.85,6,2,12,0.00
2014-8-12,78,69,64,68,64,62,95,85,67,29.93,29.85,7,2,13,0.00
2014-8-13,79,69,64,67,64,60,92,83,65,29.93,29.86,7,2,12,0.00
2014-8-14,82,71,64,67,63,60,91,79,59,29.91,29.85,7,2,12,0.00
2014-8-15,89,73,63,67,63,59,91,72,47,29.93,29.85,7,2,13,0.00
2014-8-16,89,74,64,65,60,50,91,65,26,29.95,29.85,7,1,13,0.00
2014-8-17,87,75,64,66,61,53,89,65,32,29.92,29.79,6,2,11,0.00
2014-8-18,81,70,64,68,65,62,95,83,63,29.84,29.75,7,3,13,0.00
2014-8-19,75,69,65,65,62,60,89,80,67,29.86,29.80,9,4,19,0.00
2014-8-20,78,70,64,64,62,59,89,76,61,29.90,29.83,7,2,15,0.00
2014-8-21,81,71,63,66,64,60,93,77,60,29.91,29.83,7,3,13,0.00
2014-8-22,81,70,64,68,64,61,94,83,62,29.92,29.87,6,1,10,0.00
2014-8-23,80,69,60,64,60,57,92,75,51,29.91,29.81,7,2,15,0.00
2014-8-24,79,70,60,64,62,57,92,76,58,29.86,29.78,6,2,13,0.00
2014-8-25,81,72,64,67,62,59,91,73,52,29.88,29.80,5,1,11,0.00
2014-8-26,85,72,62,65,62,59,89,74,44,29.93,29.87,5,1,12,0.00
2014-8-27,91,77,64,62,58,47,87,57,24,29.98,29.91,6,2,14,0.00
2014-8-28,94,82,69,61,55,48,63,41,28,29.96,29.81,9,3,15,0.00
2014-8-29,81,73,63,67,64,54,91,74,60,29.83,29.74,6,2,11,0.00
2014-8-30,84,70,63,68,63,61,96,80,56,29.79,29.70,6,1,11,0.00
2014-8-31,81,71,65,69,66,63,95,83,61,29.78,29.72,6,2,12,0.00
2014-9-1,78,70,62,67,64,60,95,83,65,29.79,29.72,7,2,15,0.01
2014-9-2,81,72,64,67,64,61,92,79,61,29.80,29.72,7,2,13,0.01
2014-9-3,79,71,67,67,64,62,90,79,64,29.76,29.66,7,2,15,0.00
2014-9-4,79,71,65,65,63,61,89,77,61,29.74,29.67,7,2,13,0.00
2014-9-5,81,70,63,67,64,60,93,82,62,29.85,29.74,8,2,14,0.00
2014-9-6,91,72,65,70,65,62,94,79,50,29.87,29.75,7,1,12,0.00
2014-9-7,93,78,69,68,63,58,83,64,36,29.78,29.69,6,2,10,0.00
2014-9-8,90,77,70,69,62,50,93,64,26,29.83,29.75,6,2,11,0.00
2014-9-9,87,76,67,68,63,51,90,68,29,29.87,29.79,6,2,11,0.00
2014-9-10,88,75,62,65,61,53,92,66,31,29.85,29.74,6,2,11,0.00
2014-9-11,92,78,66,67,61,48,84,60,24,29.82,29.72,7,2,14,0.00
2014-9-12,90,78,66,70,65,60,89,67,39,29.78,29.67,8,2,12,0.00
2014-9-13,94,78,67,69,65,59,90,65,37,29.73,29.62,5,1,11,0.00
2014-9-14,98,80,69,69,64,59,83,61,31,29.71,29.62,5,1,10,0.00
2014-9-15,97,83,70,69,66,63,84,60,33,29.75,29.66,6,1,11,0.00
2014-9-16,100,84,72,68,64,58,74,54,32,29.74,29.62,10,1,27,0.00
2014-9-17,94,84,70,70,64,54,85,54,31,29.73,29.64,7,2,12,0.00
2014-9-18,82,73,65,67,65,62,92,78,58,29.83,29.74,8,2,16,0.00
2014-9-19,79,71,65,65,63,60,87,76,60,29.85,29.78,7,2,13,0.00
2014-9-20,78,68,63,65,61,59,90,78,62,29.90,29.83,7,2,13,0.00
2014-9-21,79,70,62,64,61,58,88,76,56,29.94,29.86,8,2,15,0.00
2014-9-22,80,69,60,67,62,57,94,81,64,29.94,29.85,6,2,11,0.00
2014-9-23,84,69,59,68,62,57,95,81,58,29.93,29.81,5,1,10,0.01
2014-9-24,89,75,62,66,60,52,90,63,30,29.86,29.76,7,1,11,0.01
2014-9-25,88,76,66,66,59,48,78,58,27,29.87,29.78,7,2,13,0.00
2014-9-26,80,71,64,68,63,59,90,76,56,29.84,29.77,8,2,14,0.00
2014-9-27,74,66,60,62,58,55,89,74,61,29.85,29.76,8,3,16,0.00
2014-9-28,73,65,60,62,58,55,89,78,59,29.88,29.80,9,3,17,0.00
2014-9-29,80,68,57,62,58,53,91,73,46,29.89,29.78,9,2,16,0.00
2014-9-30,83,71,60,65,60,56,89,72,46,29.83,29.70,7,1,11,0.00
2014-10-1,79,69,60,65,62,57,93,80,61,29.82,29.70,6,2,12,0.00
2014-10-2,96,78,61,62,48,34,90,45,12,29.91,29.80,7,2,12,0.00
2014-10-3,96,85,70,40,33,25,25,16,9,29.96,29.85,7,3,12,0.00
2014-10-4,96,83,68,65,37,25,74,23,9,29.89,29.79,5,2,10,0.00
2014-10-5,92,80,68,57,45,29,57,33,12,29.86,29.78,5,2,10,0.00
2014-10-6,92,80,64,54,43,32,54,28,13,29.85,29.76,6,1,11,0.00
2014-10-7,95,76,65,66,52,32,88,50,11,29.85,29.75,7,1,12,0.00
2014-10-8,80,69,64,66,59,45,93,72,40,29.84,29.75,6,2,18,0.00
2014-10-9,74,67,61,63,60,57,93,80,65,29.90,29.83,7,2,14,0.00
2014-10-10,77,67,59,65,62,57,97,84,64,29.94,29.87,6,2,12,0.00
2014-10-11,78,67,63,65,62,60,93,83,63,29.94,29.84,5,2,10,0.00
2014-10-12,75,67,62,66,63,60,97,87,70,29.89,29.80,6,1,12,0.00
2014-10-13,79,68,62,66,63,60,96,86,63,29.97,29.88,5,1,11,0.00
2014-10-14,77,68,60,64,62,58,95,82,63,29.96,29.86,6,2,12,0.00
2014-10-15,76,68,62,61,58,55,85,71,52,29.95,29.88,8,3,15,0.00
2014-10-16,77,67,59,62,59,55,88,77,54,29.97,29.87,9,2,17,0.00
2014-10-17,77,67,61,64,60,57,90,78,59,29.93,29.86,7,2,15,0.00
2014-10-18,77,67,60,62,59,56,89,75,58,29.89,29.78,8,2,13,0.00
2014-10-19,76,67,59,64,60,55,92,79,60,29.87,29.78,9,2,14,0.00
2014-10-20,76,67,61,64,62,59,94,83,65,29.90,29.81,7,2,13,0.00
2014-10-21,78,67,61,65,61,57,94,81,62,29.88,29.78,7,2,12,0.00
2014-10-22,81,68,58,65,60,55,93,78,49,29.91,29.82,6,1,10,0.00
2014-10-23,85,71,61,65,59,52,87,67,41,29.95,29.86,4,1,8,0.00
2014-10-24,88,73,62,58,50,45,77,48,25,29.94,29.87,5,1,9,0.00
2014-10-25,81,70,63,62,57,47,83,63,46,30.00,29.91,7,2,12,0.00
2014-10-26,74,64,59,63,59,55,89,82,67,29.96,29.83,8,1,14,0.00
2014-10-27,74,64,56,61,57,52,92,78,61,29.90,29.83,7,1,14,0.00
2014-10-28,79,65,57,64,58,54,92,79,59,29.97,29.90,6,1,10,0.00
2014-10-29,84,70,59,62,60,55,93,73,44,29.98,29.90,5,1,11,0.00
2014-10-30,77,66,56,65,60,53,93,82,62,29.95,29.87,5,1,11,0.01
2014-10-31,70,64,60,61,59,55,93,82,65,29.92,29.80,8,2,14,0.01
2014-11-1,68,61,55,59,53,49,94,77,54,29.94,29.79,13,4,22,0.18
2014-11-2,69,59,51,55,51,47,93,76,54,30.02,29.94,7,2,13,0.12
2014-11-3,78,61,50,49,43,27,84,57,16,30.09,30.01,12,2,22,0.01
2014-11-4,81,69,56,42,32,23,44,26,13,30.13,30.02,9,3,14,0.00
2014-11-5,86,77,59,49,33,20,32,20,13,30.04,29.94,7,3,13,0.00
2014-11-6,91,81,68,36,30,23,28,17,9,30.09,29.99,7,3,12,0.00
2014-11-7,89,77,65,39,33,25,28,20,12,30.04,29.92,5,1,10,0.00
2014-11-8,89,75,59,59,45,30,89,39,17,29.98,29.89,5,2,10,0.00
2014-11-9,78,64,54,61,57,48,92,78,52,29.93,29.77,4,1,9,0.00
2014-11-10,69,62,58,58,55,53,91,80,66,29.85,29.78,7,2,16,0.00
2014-11-11,69,63,60,56,54,52,82,73,59,29.91,29.85,6,2,12,0.00
2014-11-12,71,61,57,57,54,53,85,75,56,29.98,29.89,7,2,13,0.00
2014-11-13,70,62,56,58,55,51,87,78,60,30.04,29.96,6,2,11,0.00
2014-11-14,70,62,56,62,58,53,95,86,72,29.99,29.92,7,1,12,0.07
2014-11-15,71,60,54,60,56,52,95,83,69,30.03,29.95,8,2,12,0.01
2014-11-16,75,63,54,58,31,6,93,45,8,30.11,29.98,13,3,21,0.01
2014-11-17,77,66,57,44,23,4,46,22,10,30.09,30.00,10,3,19,0.01
2014-11-18,76,64,56,50,28,13,74,28,15,30.11,30.01,5,1,10,0.00
2014-11-19,73,60,52,57,46,33,83,61,31,30.10,30.02,7,2,12,0.00
2014-11-20,71,60,51,59,53,46,88,77,59,30.07,29.93,8,2,13,0.00
2014-11-21,70,61,54,59,54,49,93,78,55,30.01,29.88,6,1,13,0.06
2014-11-22,72,60,51,58,52,46,90,76,53,30.07,29.96,7,1,10,0.01
2014-11-23,77,63,51,58,43,16,90,56,15,30.09,29.98,5,1,10,0.00
2014-11-24,79,65,56,35,20,10,27,18,10,30.25,30.07,7,2,11,0.00
2014-11-25,81,70,59,28,19,11,30,15,8,30.32,30.20,7,3,11,0.00
2014-11-26,84,72,58,46,33,16,31,24,15,30.21,30.06,6,1,9,0.00
2014-11-27,90,79,66,35,27,23,22,15,10,30.05,29.94,5,1,9,0.00
2014-11-28,81,68,60,47,34,25,44,29,19,29.94,29.83,5,1,8,0.00
2014-11-29,73,62,52,57,49,29,85,65,26,29.88,29.79,7,4,15,0.00
2014-11-30,67,62,59,60,58,54,93,86,73,30.06,29.85,13,5,21,0.05
2014-12-1,70,62,55,59,55,46,94,80,58,30.10,29.95,6,1,8,0.05
2014-12-2,63,60,57,59,53,46,96,77,53,29.96,29.84,10,3,16,0.67
2014-12-3,66,63,59,64,62,58,98,96,91,29.95,29.86,9,3,17,0.74
2014-12-4,71,63,57,65,60,55,99,91,73,30.03,29.88,7,2,16,0.73
2014-12-5,68,60,55,60,57,53,95,89,73,30.10,30.00,4,0,7,0.01
2014-12-6,72,62,57,62,57,55,96,84,62,30.15,30.09,9,2,13,0.00
2014-12-7,77,64,55,61,54,52,93,73,49,30.13,30.03,7,1,13,0.01
2014-12-8,74,63,58,59,53,49,89,70,50,30.04,29.97,5,1,9,0.01
2014-12-9,74,63,56,59,53,47,93,70,50,30.06,29.94,6,1,9,0.00
2014-12-10,71,58,53,59,52,48,94,77,55,29.98,29.90,4,1,9,0.00
2014-12-11,66,60,57,58,55,54,94,85,71,29.96,29.85,8,3,18,0.00
2014-12-12,61,56,53,56,54,51,97,91,77,30.03,29.81,19,4,31,1.32
2014-12-13,65,55,48,56,48,44,97,80,47,30.10,30.02,6,1,11,0.14
2014-12-14,67,54,46,53,47,42,88,76,56,30.09,30.01,5,1,10,0.01
2014-12-15,63,55,48,53,47,42,88,75,59,30.04,29.92,6,1,13,0.01
2014-12-16,59,55,52,53,50,47,91,85,72,29.99,29.91,10,2,18,0.03
2014-12-17,64,56,51,55,51,47,96,82,61,30.08,29.91,9,2,14,0.28
2014-12-18,65,56,50,53,50,47,91,82,63,30.17,30.06,4,0,8,0.02
2014-12-19,67,56,49,54,50,46,92,81,58,30.19,30.09,6,1,13,0.01
2014-12-20,64,52,49,55,47,46,92,84,72,30.15,30.07,4,1,9,0.00
2014-12-21,71,59,52,59,54,49,93,84,66,30.11,29.99,6,1,12,0.00
2014-12-22,74,60,52,60,54,50,95,83,56,30.01,29.90,4,1,8,0.01
2014-12-23,83,67,54,61,49,38,90,56,33,30.03,29.93,5,1,11,0.01
2014-12-24,76,64,56,54,45,36,83,52,31,30.02,29.77,5,1,9,0.00
2014-12-25,67,58,51,55,42,19,93,61,25,29.86,29.72,7,2,14,0.01
2014-12-26,66,55,48,32,21,12,42,26,17,30.14,29.85,9,4,18,0.01
2014-12-27,63,52,46,34,24,16,54,32,19,30.28,30.14,13,3,18,0.00
2014-12-28,63,51,43,44,33,22,67,50,33,30.24,30.12,5,1,11,0.00
2014-12-29,63,51,43,48,42,34,87,71,56,30.12,29.99,5,1,10,0.00
2014-12-30,57,51,41,49,43,37,90,76,55,30.00,29.83,17,4,31,0.60
2014-12-31,57,45,40,38,27,20,89,51,24,30.03,29.83,17,5,29,0.64
2015-1-1,60,48,39,40,33,23,74,58,41,30.13,30.02,4,1,10,0.02
2015-1-2,61,49,41,47,40,33,84,72,54,30.12,30.02,6,2,12,0.00